Time;durP1;ratioP1;P1;durP2;ratioP2;P2;SDS_P1;SDS_P2;PMS_P1;PMS_P2;Temp;Humidity;BMP_temperature;BMP_pressure;BME280_temperature;BME280_humidity;BME280_pressure;Samples;Min_cycle;Max_cycle;Signal;HPM_P1;HPM_P2
2021/10/17 00:00:34;;;;;;;25.13;8.07;;;;;;;;;;5030550;28;20030;-68
2021/10/17 00:03:00;;;;;;;17.52;7.78;;;;;;;;;;5028413;28;21999;-68
2021/10/17 00:05:28;;;;;;;20.35;7.82;;;;;;;;;;5028827;28;20048;-68
2021/10/17 00:07:54;;;;;;;21.33;7.50;;;;;;;;;;5030194;28;20052;-68
2021/10/17 00:10:22;;;;;;;20.67;7.15;;;;;;;;;;5029720;28;20025;-68
2021/10/17 00:12:48;;;;;;;19.98;7.65;;;;;;;;;;5030726;28;20444;-68
2021/10/17 00:15:17;;;;;;;18.83;7.30;;;;;;;;;;5030763;28;20117;-68
2021/10/17 00:17:43;;;;;;;20.02;7.57;;;;;;;;;;5027259;28;20025;-68
2021/10/17 00:20:11;;;;;;;23.98;7.68;;;;;;;;;;5024151;28;20034;-68
2021/10/17 00:22:37;;;;;;;19.27;7.65;;;;;;;;;;5020945;28;20029;-68
2021/10/17 00:25:04;;;;;;;17.95;7.30;;;;;;;;;;5030382;28;20094;-68
2021/10/17 00:27:30;;;;;;;25.17;7.32;;;;;;;;;;5028877;28;20116;-67
2021/10/17 00:29:56;;;;;;;22.67;9.85;;;;;;;;;;5028195;28;20494;-68
2021/10/17 00:32:22;;;;;;;26.60;7.32;;;;;;;;;;5027709;28;20545;-68
2021/10/17 00:34:48;;;;;;;21.38;7.75;;;;;;;;;;5029155;28;20622;-68
2021/10/17 00:37:17;;;;;;;18.02;7.07;;;;;;;;;;5030394;28;20080;-68
2021/10/17 00:39:43;;;;;;;21.55;9.73;;;;;;;;;;5028242;28;20033;-68
2021/10/17 00:42:09;;;;;;;20.73;7.50;;;;;;;;;;5030376;28;20051;-68
2021/10/17 00:44:38;;;;;;;19.80;8.75;;;;;;;;;;5030011;28;20476;-68
2021/10/17 00:47:04;;;;;;;23.70;7.63;;;;;;;;;;5027760;28;20043;-67
2021/10/17 00:49:30;;;;;;;25.75;8.25;;;;;;;;;;5025816;28;20517;-68
2021/10/17 00:51:56;;;;;;;26.25;7.97;;;;;;;;;;5029369;28;20029;-68
2021/10/17 00:54:23;;;;;;;17.75;7.85;;;;;;;;;;5028727;28;20421;-68
2021/10/17 00:56:49;;;;;;;22.58;8.27;;;;;;;;;;5028258;28;20044;-68
2021/10/17 00:59:15;;;;;;;21.85;7.75;;;;;;;;;;5025529;28;20037;-67
2021/10/17 01:01:41;;;;;;;23.40;8.65;;;;;;;;;;5029010;28;20029;-68
2021/10/17 01:04:07;;;;;;;23.58;10.15;;;;;;;;;;5027949;28;20033;-68
2021/10/17 01:06:33;;;;;;;27.80;8.98;;;;;;;;;;5031433;28;20044;-68
2021/10/17 01:09:00;;;;;;;21.40;8.68;;;;;;;;;;5028231;28;20032;-68
2021/10/17 01:11:39;;;;;;;17.58;8.55;;;;;;;;;;5027722;28;20024;-68
2021/10/17 01:14:05;;;;;;;25.30;9.32;;;;;;;;;;5024707;28;20017;-68
2021/10/17 01:16:31;;;;;;;28.60;8.07;;;;;;;;;;5028110;28;20143;-67
2021/10/17 01:18:57;;;;;;;23.45;8.05;;;;;;;;;;5026293;28;20041;-68
2021/10/17 01:21:24;;;;;;;22.05;8.05;;;;;;;;;;5034532;28;20051;-67
2021/10/17 01:23:50;;;;;;;22.23;8.57;;;;;;;;;;5028409;28;20086;-67
2021/10/17 01:26:17;;;;;;;21.42;8.38;;;;;;;;;;5029071;28;20397;-68
2021/10/17 01:28:43;;;;;;;24.88;7.90;;;;;;;;;;5027558;28;20032;-68
2021/10/17 01:31:09;;;;;;;21.13;7.93;;;;;;;;;;5031583;28;20063;-68
2021/10/17 01:33:35;;;;;;;26.48;7.97;;;;;;;;;;5031798;28;20056;-68
2021/10/17 01:36:01;;;;;;;14.93;7.65;;;;;;;;;;5050939;28;20103;-68
2021/10/17 01:38:27;;;;;;;16.38;8.20;;;;;;;;;;5023664;28;20021;-67
2021/10/17 01:40:53;;;;;;;23.13;9.10;;;;;;;;;;5029887;28;20026;-68
2021/10/17 01:43:19;;;;;;;19.05;8.02;;;;;;;;;;5032217;28;20038;-68
2021/10/17 01:45:45;;;;;;;22.83;8.52;;;;;;;;;;5032088;28;20048;-68
2021/10/17 01:48:11;;;;;;;22.52;9.02;;;;;;;;;;5026793;28;20029;-68
2021/10/17 01:50:38;;;;;;;26.40;8.93;;;;;;;;;;5032620;28;20029;-68
2021/10/17 01:53:04;;;;;;;20.70;7.75;;;;;;;;;;5030501;28;20052;-68
2021/10/17 01:55:30;;;;;;;23.83;8.48;;;;;;;;;;5031665;28;20112;-68
2021/10/17 01:57:56;;;;;;;24.08;8.98;;;;;;;;;;5031589;28;20021;-68
2021/10/17 02:00:22;;;;;;;24.60;8.75;;;;;;;;;;5033013;28;20029;-68
2021/10/17 02:02:48;;;;;;;22.17;9.43;;;;;;;;;;5031754;28;20025;-68
2021/10/17 02:05:14;;;;;;;24.90;9.27;;;;;;;;;;5033942;28;20146;-68
2021/10/17 02:07:41;;;;;;;27.38;9.10;;;;;;;;;;5032102;28;20026;-68
2021/10/17 02:10:07;;;;;;;33.47;9.02;;;;;;;;;;5031660;28;20020;-67
2021/10/17 02:12:34;;;;;;;26.20;9.85;;;;;;;;;;5031509;28;20510;-67
2021/10/17 02:15:04;;;;;;;20.75;8.65;;;;;;;;;;5033339;28;20489;-68
2021/10/17 02:17:31;;;;;;;21.67;8.63;;;;;;;;;;5032273;28;20032;-68
2021/10/17 02:19:57;;;;;;;19.27;8.40;;;;;;;;;;5030195;28;20106;-68
2021/10/17 02:22:23;;;;;;;20.10;9.60;;;;;;;;;;5032449;28;20464;-67
2021/10/17 02:24:49;;;;;;;21.50;8.60;;;;;;;;;;5032457;28;20025;-68
2021/10/17 02:27:15;;;;;;;22.70;9.77;;;;;;;;;;5032886;28;20037;-68
2021/10/17 02:29:41;;;;;;;18.88;9.70;;;;;;;;;;5031655;28;20034;-68
2021/10/17 02:32:07;;;;;;;23.92;9.52;;;;;;;;;;5034796;28;20029;-68
2021/10/17 02:34:33;;;;;;;24.02;9.35;;;;;;;;;;5030212;28;20037;-68
2021/10/17 02:37:00;;;;;;;21.25;9.13;;;;;;;;;;5031364;28;20116;-68
2021/10/17 02:39:26;;;;;;;22.38;9.98;;;;;;;;;;5030463;28;20021;-68
2021/10/17 02:41:52;;;;;;;21.40;9.05;;;;;;;;;;5030985;28;20119;-68
2021/10/17 02:44:18;;;;;;;19.98;9.05;;;;;;;;;;5030718;28;20482;-68
2021/10/17 02:46:44;;;;;;;18.75;8.98;;;;;;;;;;5030469;28;20411;-68
2021/10/17 02:49:10;;;;;;;27.60;9.65;;;;;;;;;;5029153;28;20483;-68
2021/10/17 02:51:36;;;;;;;28.15;9.95;;;;;;;;;;5032823;28;20025;-68
2021/10/17 02:54:02;;;;;;;22.95;8.77;;;;;;;;;;5029267;28;20092;-68
2021/10/17 02:56:28;;;;;;;26.10;8.90;;;;;;;;;;5031683;28;20025;-68
2021/10/17 02:58:54;;;;;;;21.70;8.50;;;;;;;;;;5030995;28;20029;-68
2021/10/17 03:01:20;;;;;;;21.92;9.98;;;;;;;;;;5031852;28;20537;-67
2021/10/17 03:03:46;;;;;;;21.92;9.48;;;;;;;;;;5030564;28;20049;-68
2021/10/17 03:06:12;;;;;;;24.15;10.45;;;;;;;;;;5032596;28;20096;-68
2021/10/17 03:08:38;;;;;;;20.85;9.98;;;;;;;;;;5017993;28;20025;-68
2021/10/17 03:11:04;;;;;;;21.38;9.05;;;;;;;;;;5031961;28;20022;-68
2021/10/17 03:13:30;;;;;;;16.48;8.68;;;;;;;;;;5029960;28;20072;-68
2021/10/17 03:15:57;;;;;;;24.25;9.43;;;;;;;;;;5031903;28;20030;-68
2021/10/17 03:18:23;;;;;;;19.50;8.23;;;;;;;;;;5035046;28;20587;-68
2021/10/17 03:20:49;;;;;;;24.63;9.00;;;;;;;;;;5033350;28;20068;-68
2021/10/17 03:23:15;;;;;;;17.08;8.73;;;;;;;;;;5033268;28;20028;-68
2021/10/17 03:25:41;;;;;;;20.13;8.70;;;;;;;;;;5032281;28;20021;-68
2021/10/17 03:28:07;;;;;;;24.65;9.23;;;;;;;;;;5023486;28;20018;-68
2021/10/17 03:30:33;;;;;;;21.42;9.50;;;;;;;;;;5031208;28;20605;-68
2021/10/17 03:32:59;;;;;;;21.65;8.68;;;;;;;;;;5029443;28;20658;-68
2021/10/17 03:35:25;;;;;;;17.95;8.60;;;;;;;;;;5031522;28;20493;-68
2021/10/17 03:37:51;;;;;;;22.92;8.75;;;;;;;;;;5028654;28;20397;-68
2021/10/17 03:40:17;;;;;;;20.45;8.27;;;;;;;;;;5028963;28;20030;-68
2021/10/17 03:42:43;;;;;;;27.15;9.68;;;;;;;;;;5046421;28;20072;-68
2021/10/17 03:45:09;;;;;;;20.35;9.52;;;;;;;;;;5028652;28;20022;-68
2021/10/17 03:47:35;;;;;;;21.67;9.25;;;;;;;;;;5029037;28;20021;-68
2021/10/17 03:50:01;;;;;;;20.05;8.68;;;;;;;;;;5028332;28;20087;-68
2021/10/17 03:52:28;;;;;;;22.38;9.82;;;;;;;;;;5029797;28;20022;-68
2021/10/17 03:54:54;;;;;;;22.70;9.63;;;;;;;;;;5031234;28;20401;-68
2021/10/17 03:57:20;;;;;;;25.45;11.02;;;;;;;;;;5026206;28;20021;-68
2021/10/17 03:59:46;;;;;;;19.60;9.32;;;;;;;;;;5029108;28;20029;-68
2021/10/17 04:02:12;;;;;;;20.10;9.80;;;;;;;;;;5030740;28;20401;-68
2021/10/17 04:04:38;;;;;;;25.55;9.45;;;;;;;;;;5029789;28;20490;-68
2021/10/17 04:07:06;;;;;;;24.00;10.02;;;;;;;;;;5030571;28;20029;-68
2021/10/17 04:09:32;;;;;;;19.23;9.90;;;;;;;;;;5030885;28;20013;-68
2021/10/17 04:11:58;;;;;;;17.80;9.57;;;;;;;;;;5031128;28;20442;-68
2021/10/17 04:14:24;;;;;;;24.20;9.82;;;;;;;;;;5031507;28;20021;-68
2021/10/17 04:16:50;;;;;;;23.63;11.02;;;;;;;;;;5028691;28;20040;-67
2021/10/17 04:19:16;;;;;;;24.17;10.90;;;;;;;;;;5026905;28;20444;-68
2021/10/17 04:21:42;;;;;;;24.27;11.50;;;;;;;;;;5030319;28;20033;-68
2021/10/17 04:24:08;;;;;;;23.92;9.85;;;;;;;;;;5022494;28;20037;-68
2021/10/17 04:26:35;;;;;;;21.88;10.23;;;;;;;;;;5030484;28;20113;-68
2021/10/17 04:29:01;;;;;;;30.77;10.55;;;;;;;;;;5047351;28;20045;-68
2021/10/17 04:31:27;;;;;;;19.20;10.00;;;;;;;;;;5035160;28;20033;-68
2021/10/17 04:33:53;;;;;;;23.30;10.25;;;;;;;;;;5029893;28;20025;-68
2021/10/17 04:36:19;;;;;;;24.92;10.45;;;;;;;;;;5030907;28;20128;-68
2021/10/17 04:38:45;;;;;;;27.00;11.68;;;;;;;;;;5027201;28;20042;-68
2021/10/17 04:41:13;;;;;;;23.55;11.77;;;;;;;;;;5028945;28;20535;-68
2021/10/17 04:43:39;;;;;;;25.02;11.07;;;;;;;;;;5029366;28;20058;-68
2021/10/17 04:46:05;;;;;;;24.23;11.30;;;;;;;;;;5028929;28;20030;-68
2021/10/17 04:48:31;;;;;;;25.38;11.57;;;;;;;;;;5029192;28;20030;-68
2021/10/17 04:50:58;;;;;;;24.75;11.38;;;;;;;;;;5028390;28;20493;-68
2021/10/17 04:53:24;;;;;;;21.70;11.38;;;;;;;;;;5029325;28;20071;-68
2021/10/17 04:55:50;;;;;;;24.35;11.05;;;;;;;;;;5030649;28;20052;-68
2021/10/17 04:58:16;;;;;;;26.65;12.27;;;;;;;;;;5027812;28;20032;-68
2021/10/17 05:00:42;;;;;;;25.60;12.35;;;;;;;;;;5027591;28;20026;-68
2021/10/17 05:03:08;;;;;;;22.38;11.02;;;;;;;;;;5029683;28;20552;-68
2021/10/17 05:05:34;;;;;;;21.00;10.40;;;;;;;;;;5028812;28;20068;-68
2021/10/17 05:08:01;;;;;;;29.38;12.73;;;;;;;;;;5028402;28;20022;-68
2021/10/17 05:10:27;;;;;;;23.23;12.00;;;;;;;;;;5031373;28;20109;-68
2021/10/17 05:12:53;;;;;;;21.30;11.27;;;;;;;;;;5021738;28;20026;-68
2021/10/17 05:15:19;;;;;;;26.38;12.68;;;;;;;;;;5030438;28;20068;-68
2021/10/17 05:17:45;;;;;;;26.10;12.02;;;;;;;;;;5027075;28;20037;-68
2021/10/17 05:20:11;;;;;;;22.20;11.43;;;;;;;;;;5030109;28;20631;-68
2021/10/17 05:22:37;;;;;;;24.85;11.98;;;;;;;;;;5031935;28;20033;-68
2021/10/17 05:25:04;;;;;;;26.70;11.60;;;;;;;;;;5024704;28;20033;-68
2021/10/17 05:27:30;;;;;;;26.80;12.38;;;;;;;;;;5029977;28;20029;-68
2021/10/17 05:29:56;;;;;;;25.77;12.65;;;;;;;;;;5027310;28;20054;-68
2021/10/17 05:32:23;;;;;;;27.05;12.40;;;;;;;;;;5027269;28;20075;-68
2021/10/17 05:34:49;;;;;;;29.23;13.25;;;;;;;;;;5044129;28;20120;-69
2021/10/17 05:37:15;;;;;;;25.67;12.77;;;;;;;;;;5029976;28;20033;-68
2021/10/17 05:39:41;;;;;;;29.83;13.38;;;;;;;;;;5029662;28;20032;-68
2021/10/17 05:42:08;;;;;;;26.25;12.60;;;;;;;;;;5028608;28;20033;-68
2021/10/17 05:44:34;;;;;;;25.77;12.32;;;;;;;;;;5027062;28;20033;-68
2021/10/17 05:47:00;;;;;;;21.40;11.25;;;;;;;;;;5029276;28;20112;-68
2021/10/17 05:49:26;;;;;;;25.33;12.15;;;;;;;;;;5028840;28;20052;-68
2021/10/17 05:51:52;;;;;;;28.40;12.57;;;;;;;;;;5029346;28;20079;-68
2021/10/17 05:54:18;;;;;;;30.13;12.90;;;;;;;;;;5024406;28;20040;-68
2021/10/17 05:56:44;;;;;;;27.55;11.93;;;;;;;;;;5024274;28;20041;-68
2021/10/17 05:59:10;;;;;;;32.75;13.27;;;;;;;;;;5025720;28;20029;-68
2021/10/17 06:01:37;;;;;;;31.75;12.35;;;;;;;;;;5027748;28;20021;-68
2021/10/17 06:04:03;;;;;;;24.88;11.52;;;;;;;;;;5028602;28;20037;-68
2021/10/17 06:06:29;;;;;;;24.73;11.65;;;;;;;;;;5027924;28;20026;-68
2021/10/17 06:08:58;;;;;;;25.02;11.82;;;;;;;;;;5026194;28;20029;-68
2021/10/17 06:11:24;;;;;;;25.35;12.55;;;;;;;;;;5027323;28;20030;-68
2021/10/17 06:13:50;;;;;;;26.65;12.15;;;;;;;;;;5027137;28;20064;-68
2021/10/17 06:16:16;;;;;;;26.27;12.55;;;;;;;;;;5029829;28;20037;-68
2021/10/17 06:18:42;;;;;;;33.05;12.15;;;;;;;;;;5031520;28;20026;-68
2021/10/17 06:21:08;;;;;;;21.85;11.50;;;;;;;;;;5025703;28;20040;-68
2021/10/17 06:23:35;;;;;;;26.85;12.18;;;;;;;;;;5030339;28;20044;-68
2021/10/17 06:26:01;;;;;;;26.67;12.75;;;;;;;;;;5032984;28;20025;-68
2021/10/17 06:28:27;;;;;;;24.00;10.75;;;;;;;;;;5028896;28;20107;-68
2021/10/17 06:30:53;;;;;;;24.45;12.43;;;;;;;;;;5027605;28;20053;-68
2021/10/17 06:33:19;;;;;;;30.85;13.02;;;;;;;;;;5029944;28;20504;-68
2021/10/17 06:35:45;;;;;;;20.13;12.02;;;;;;;;;;5022395;28;20038;-68
2021/10/17 06:38:11;;;;;;;27.10;12.30;;;;;;;;;;5030614;28;20032;-68
2021/10/17 06:40:37;;;;;;;29.98;13.20;;;;;;;;;;5031108;28;20029;-68
2021/10/17 06:43:03;;;;;;;25.40;12.20;;;;;;;;;;5031030;28;20512;-68
2021/10/17 06:45:30;;;;;;;38.95;13.70;;;;;;;;;;5032385;28;20068;-68
2021/10/17 06:47:56;;;;;;;23.92;12.75;;;;;;;;;;5029871;28;20029;-68
2021/10/17 06:50:22;;;;;;;25.08;13.15;;;;;;;;;;5033418;28;20022;-68
2021/10/17 06:52:51;;;;;;;25.73;12.85;;;;;;;;;;5033344;28;20371;-68
2021/10/17 06:55:17;;;;;;;26.13;12.90;;;;;;;;;;5031263;28;20033;-68
2021/10/17 06:57:45;;;;;;;25.90;13.00;;;;;;;;;;5032678;28;20371;-68
2021/10/17 07:00:11;;;;;;;24.60;12.48;;;;;;;;;;5027803;28;20017;-68
2021/10/17 07:02:37;;;;;;;24.17;12.50;;;;;;;;;;5027137;28;20567;-68
2021/10/17 07:05:04;;;;;;;22.10;11.52;;;;;;;;;;5031337;28;20064;-68
2021/10/17 07:07:30;;;;;;;25.05;12.57;;;;;;;;;;5029828;28;20792;-68
2021/10/17 07:09:56;;;;;;;24.38;12.88;;;;;;;;;;5029008;28;20033;-68
2021/10/17 07:12:22;;;;;;;29.45;12.45;;;;;;;;;;5030365;28;20024;-68
2021/10/17 07:14:51;;;;;;;23.77;11.50;;;;;;;;;;5029813;28;20025;-68
2021/10/17 07:17:17;;;;;;;25.58;13.00;;;;;;;;;;5030640;28;20017;-68
2021/10/17 07:19:43;;;;;;;26.02;13.88;;;;;;;;;;5026960;28;20025;-68
2021/10/17 07:22:09;;;;;;;27.38;13.13;;;;;;;;;;5030480;28;20432;-68
2021/10/17 07:24:35;;;;;;;27.63;12.43;;;;;;;;;;5031560;28;20025;-68
2021/10/17 07:27:02;;;;;;;26.27;12.32;;;;;;;;;;5027942;28;20068;-68
2021/10/17 07:29:28;;;;;;;22.35;11.90;;;;;;;;;;5025680;28;20033;-68
2021/10/17 07:31:54;;;;;;;25.60;12.65;;;;;;;;;;5045427;28;20564;-68
2021/10/17 07:34:20;;;;;;;30.55;12.20;;;;;;;;;;5027138;28;20033;-68
2021/10/17 07:36:46;;;;;;;19.98;12.25;;;;;;;;;;5026921;28;20037;-68
2021/10/17 07:39:13;;;;;;;26.15;14.20;;;;;;;;;;5027888;28;20041;-68
2021/10/17 07:41:41;;;;;;;22.17;11.70;;;;;;;;;;5029311;28;20029;-68
2021/10/17 07:44:07;;;;;;;27.40;12.88;;;;;;;;;;5026799;28;20037;-68
2021/10/17 07:46:34;;;;;;;24.83;12.90;;;;;;;;;;5027412;28;20402;-68
2021/10/17 07:49:00;;;;;;;21.25;12.07;;;;;;;;;;5025651;28;20393;-68
2021/10/17 07:51:26;;;;;;;29.63;11.93;;;;;;;;;;5026679;28;20025;-68
2021/10/17 07:53:53;;;;;;;24.42;11.63;;;;;;;;;;5026577;28;20044;-68
2021/10/17 07:56:19;;;;;;;29.92;12.48;;;;;;;;;;5029370;28;20017;-68
2021/10/17 07:58:46;;;;;;;22.17;12.27;;;;;;;;;;5028166;28;20187;-68
2021/10/17 08:01:12;;;;;;;25.42;11.65;;;;;;;;;;5029986;28;20033;-68
2021/10/17 08:03:39;;;;;;;26.38;11.02;;;;;;;;;;5029129;28;20038;-68
2021/10/17 08:06:05;;;;;;;24.88;10.73;;;;;;;;;;5026775;28;20025;-68
2021/10/17 08:08:31;;;;;;;23.50;11.45;;;;;;;;;;5027550;28;20056;-68
2021/10/17 08:10:57;;;;;;;29.42;12.02;;;;;;;;;;5026790;28;20041;-68
2021/10/17 08:13:25;;;;;;;23.73;11.65;;;;;;;;;;5028122;28;20175;-69
2021/10/17 08:15:51;;;;;;;29.73;11.95;;;;;;;;;;5042935;28;20037;-67
2021/10/17 08:18:17;;;;;;;26.80;11.43;;;;;;;;;;5027882;28;20050;-68
2021/10/17 08:20:43;;;;;;;24.13;11.27;;;;;;;;;;5029824;28;20558;-68
2021/10/17 08:23:09;;;;;;;25.30;11.23;;;;;;;;;;5022721;28;20040;-68
2021/10/17 08:25:38;;;;;;;24.88;11.52;;;;;;;;;;5019350;28;20030;-67
2021/10/17 08:28:04;;;;;;;20.77;11.10;;;;;;;;;;5018656;28;20018;-68
2021/10/17 08:30:30;;;;;;;25.02;11.10;;;;;;;;;;5018124;28;20129;-69
2021/10/17 08:32:56;;;;;;;26.38;11.50;;;;;;;;;;5025019;28;20045;-68
2021/10/17 08:35:22;;;;;;;20.50;11.25;;;;;;;;;;5027402;28;20098;-68
2021/10/17 08:37:48;;;;;;;19.60;10.85;;;;;;;;;;5023624;28;20083;-68
2021/10/17 08:40:14;;;;;;;30.52;11.85;;;;;;;;;;5019541;28;20061;-68
2021/10/17 08:42:42;;;;;;;27.05;10.60;;;;;;;;;;5022560;28;21674;-68
2021/10/17 08:45:08;;;;;;;22.77;12.10;;;;;;;;;;5025368;28;20025;-68
2021/10/17 08:47:34;;;;;;;22.02;11.38;;;;;;;;;;5017574;28;20041;-68
2021/10/17 08:50:00;;;;;;;23.10;11.95;;;;;;;;;;5020937;28;20029;-68
2021/10/17 08:52:27;;;;;;;75.00;16.15;;;;;;;;;;5020047;28;20034;-67
2021/10/17 08:54:53;;;;;;;137.00;21.35;;;;;;;;;;5022853;28;20116;-68
2021/10/17 08:57:19;;;;;;;29.60;13.35;;;;;;;;;;5026568;28;20112;-68
2021/10/17 08:59:46;;;;;;;20.98;9.82;;;;;;;;;;5019764;28;20386;-68
2021/10/17 09:02:26;;;;;;;;;;;;;;;;;;;;;
2021/10/17 09:13:14;;;;;;;22.50;11.52;;;;;;;;;;4277465;26;20465;-69
2021/10/17 09:15:41;;;;;;;17.55;10.90;;;;;;;;;;5022413;28;20036;-69
2021/10/17 09:18:13;;;;;;;27.70;10.85;;;;;;;;;;5020223;28;20021;-68
2021/10/17 09:20:39;;;;;;;;;;;;;;;;;;5023916;28;20025;-69
2021/10/17 09:23:06;;;;;;;23.83;10.25;;;;;;;;;;5021136;28;19923;-69
2021/10/17 09:25:33;;;;;;;25.23;11.20;;;;;;;;;;5025914;28;20072;-69
2021/10/17 09:27:59;;;;;;;21.50;10.32;;;;;;;;;;5021645;28;20423;-69
2021/10/17 09:30:25;;;;;;;20.15;11.65;;;;;;;;;;5023055;28;20504;-69
2021/10/17 09:35:31;;;;;;;20.50;10.73;;;;;;;;;;4351787;26;20038;-69
2021/10/17 09:38:00;;;;;;;20.90;10.48;;;;;;;;;;5002653;28;20037;-69
2021/10/17 09:40:28;;;;;;;19.60;10.20;;;;;;;;;;5045364;22;20093;-72
2021/10/17 09:43:28;;;;;;;20.02;10.43;;;;;;;;;;4972613;28;20157;-71
2021/10/17 09:46:08;;;;;;;19.77;10.88;;;;;;;;;;4967418;28;20061;-72
2021/10/17 09:48:34;;;;;;;24.13;10.77;;;;;;;;;;4970710;28;20023;-71
2021/10/17 09:51:01;;;;;;;21.40;10.63;;;;;;;;;;4970554;28;20034;-71
2021/10/17 09:53:41;;;;;;;21.50;11.40;;;;;;;;;;4972668;28;20031;-71
2021/10/17 09:56:08;;;;;;;23.55;12.95;;;;;;;;;;4972537;28;20087;-70
2021/10/17 09:58:34;;;;;;;15.95;10.40;;;;;;;;;;4975771;28;20026;-71
2021/10/17 10:01:01;;;;;;;25.55;10.57;;;;;;;;;;4973937;28;20037;-71
2021/10/17 10:03:27;;;;;;;21.50;10.95;;;;;;;;;;4975916;28;20062;-71
2021/10/17 10:05:57;;;;;;;26.77;10.30;;;;;;;;;;4972677;28;20110;-72
2021/10/17 10:08:27;;;;;;;26.63;12.13;;;;;;;;;;4966450;28;20020;-71
2021/10/17 10:10:54;;;;;;;23.77;10.35;;;;;;;;;;4990107;28;20077;-71
2021/10/17 10:13:20;;;;;;;22.08;11.07;;;;;;;;;;4972978;28;20493;-70
2021/10/17 10:15:47;;;;;;;22.45;10.57;;;;;;;;;;4969275;28;20057;-71
2021/10/17 10:18:14;;;;;;;21.52;9.55;;;;;;;;;;4985590;28;20528;-71
2021/10/17 10:20:40;;;;;;;21.27;10.73;;;;;;;;;;4974355;28;20486;-71
2021/10/17 10:23:11;;;;;;;20.75;10.45;;;;;;;;;;4974983;28;20397;-71
2021/10/17 10:25:38;;;;;;;17.35;11.20;;;;;;;;;;4972892;28;20039;-71
2021/10/17 10:28:05;;;;;;;17.60;10.57;;;;;;;;;;4971498;28;20113;-71
2021/10/17 10:30:35;;;;;;;23.48;10.70;;;;;;;;;;4988825;28;20042;-71
2021/10/17 10:33:08;;;;;;;18.02;9.27;;;;;;;;;;4985094;28;20560;-71
2021/10/17 10:35:34;;;;;;;20.85;9.85;;;;;;;;;;4986754;28;20039;-71
2021/10/17 10:38:01;;;;;;;18.25;9.80;;;;;;;;;;4966037;28;20061;-71
2021/10/17 10:40:27;;;;;;;19.73;11.15;;;;;;;;;;4987185;28;20038;-71
2021/10/17 10:42:53;;;;;;;18.48;10.18;;;;;;;;;;4972665;28;20023;-71
2021/10/17 10:45:24;;;;;;;18.85;10.00;;;;;;;;;;4987204;28;20050;-72
2021/10/17 10:48:06;;;;;;;23.15;10.43;;;;;;;;;;4968966;28;20044;-71
2021/10/17 10:50:36;;;;;;;21.75;10.48;;;;;;;;;;4989260;28;20030;-71
2021/10/17 10:53:02;;;;;;;23.63;10.93;;;;;;;;;;4987009;28;20394;-71
2021/10/17 10:55:44;;;;;;;17.20;9.88;;;;;;;;;;4987875;28;20033;-71
2021/10/17 10:58:36;;;;;;;17.77;9.95;;;;;;;;;;4972922;28;20082;-71
2021/10/17 11:01:03;;;;;;;21.20;10.88;;;;;;;;;;4969011;28;20047;-71
2021/10/17 11:03:42;;;;;;;20.60;10.25;;;;;;;;;;4988013;28;20114;-71
2021/10/17 11:06:08;;;;;;;17.15;10.45;;;;;;;;;;4972053;28;20039;-71
2021/10/17 11:08:37;;;;;;;20.17;11.27;;;;;;;;;;4971175;28;20029;-72
2021/10/17 11:11:03;;;;;;;22.05;12.13;;;;;;;;;;4988200;28;20069;-71
2021/10/17 11:13:30;;;;;;;23.90;9.95;;;;;;;;;;4974440;28;20074;-71
2021/10/17 11:15:56;;;;;;;20.88;10.68;;;;;;;;;;4982332;28;20317;-71
2021/10/17 11:18:30;;;;;;;23.17;10.63;;;;;;;;;;4968758;28;20027;-71
2021/10/17 11:20:56;;;;;;;19.55;10.95;;;;;;;;;;4972478;28;20058;-71
2021/10/17 11:23:23;;;;;;;25.25;10.10;;;;;;;;;;4970687;28;20054;-72
2021/10/17 11:25:56;;;;;;;21.67;11.45;;;;;;;;;;4986794;28;20030;-71
2021/10/17 11:28:26;;;;;;;24.90;10.93;;;;;;;;;;4962366;28;20019;-71
2021/10/17 11:31:02;;;;;;;21.15;10.90;;;;;;;;;;4973253;28;20110;-71
2021/10/17 11:33:28;;;;;;;17.98;10.77;;;;;;;;;;4968076;28;20031;-71
2021/10/17 11:35:56;;;;;;;20.35;10.18;;;;;;;;;;4972212;28;20041;-71
2021/10/17 11:38:22;;;;;;;19.88;10.57;;;;;;;;;;4962854;28;20022;-71
2021/10/17 11:40:48;;;;;;;20.00;11.00;;;;;;;;;;4970663;28;20043;-71
2021/10/17 11:43:15;;;;;;;21.73;10.70;;;;;;;;;;4985746;28;20031;-72
2021/10/17 11:45:42;;;;;;;21.13;10.95;;;;;;;;;;4969656;28;20097;-72
2021/10/17 11:48:10;;;;;;;28.13;13.00;;;;;;;;;;4984848;28;20062;-71
2021/10/17 11:50:40;;;;;;;29.35;13.88;;;;;;;;;;4972768;28;20050;-72
2021/10/17 11:53:11;;;;;;;23.90;12.00;;;;;;;;;;4985870;28;20448;-71
2021/10/17 11:55:40;;;;;;;17.15;10.30;;;;;;;;;;4969587;28;20033;-72
2021/10/17 11:58:26;;;;;;;20.38;11.27;;;;;;;;;;4971060;28;20291;-72
2021/10/17 12:00:55;;;;;;;22.13;12.20;;;;;;;;;;4984391;28;20023;-72
2021/10/17 12:03:23;;;;;;;20.67;12.02;;;;;;;;;;4968956;28;20519;-72
2021/10/17 12:05:50;;;;;;;23.23;12.68;;;;;;;;;;4987106;28;20097;-72
2021/10/17 12:08:26;;;;;;;18.83;11.43;;;;;;;;;;4966876;28;20323;-72
2021/10/17 12:10:56;;;;;;;18.02;10.48;;;;;;;;;;4970397;28;20035;-72
2021/10/17 12:13:22;;;;;;;23.42;11.20;;;;;;;;;;4975724;28;20034;-71
2021/10/17 12:15:48;;;;;;;21.33;11.00;;;;;;;;;;4971018;28;20026;-71
2021/10/17 12:18:14;;;;;;;18.75;10.48;;;;;;;;;;4980547;28;20047;-72
2021/10/17 12:20:40;;;;;;;20.83;10.13;;;;;;;;;;4971998;28;20030;-73
2021/10/17 12:23:07;;;;;;;20.35;11.02;;;;;;;;;;4971022;28;20033;-72
2021/10/17 12:25:33;;;;;;;22.13;11.95;;;;;;;;;;4971349;28;20030;-72
2021/10/17 12:28:01;;;;;;;17.27;11.50;;;;;;;;;;4972205;28;20046;-72
2021/10/17 12:30:33;;;;;;;18.92;9.77;;;;;;;;;;4983691;28;20022;-71
2021/10/17 12:33:00;;;;;;;19.65;10.23;;;;;;;;;;4988560;28;20054;-72
2021/10/17 12:35:32;;;;;;;18.27;9.43;;;;;;;;;;4986203;28;20161;-72
2021/10/17 12:38:07;;;;;;;20.10;8.98;;;;;;;;;;4983350;28;20038;-72
2021/10/17 12:40:34;;;;;;;17.20;9.02;;;;;;;;;;4986038;28;20053;-72
2021/10/17 12:43:01;;;;;;;17.88;9.27;;;;;;;;;;4985248;28;20039;-72
2021/10/17 12:45:31;;;;;;;16.30;8.68;;;;;;;;;;4970967;28;20050;-72
2021/10/17 12:47:58;;;;;;;17.90;8.32;;;;;;;;;;4968409;28;20516;-72
2021/10/17 12:50:25;;;;;;;19.48;9.48;;;;;;;;;;4970407;28;20030;-72
2021/10/17 12:52:54;;;;;;;18.17;9.30;;;;;;;;;;4970445;28;20046;-73
2021/10/17 12:55:20;;;;;;;20.25;8.43;;;;;;;;;;4971738;28;20078;-72
2021/10/17 12:58:00;;;;;;;17.42;10.18;;;;;;;;;;4963423;28;20456;-71
2021/10/17 13:00:26;;;;;;;17.58;8.95;;;;;;;;;;4965175;28;20026;-71
2021/10/17 13:02:52;;;;;;;16.80;9.15;;;;;;;;;;4982974;28;20061;-72
2021/10/17 13:05:19;;;;;;;22.88;9.52;;;;;;;;;;4971716;28;20069;-72
2021/10/17 13:07:45;;;;;;;15.98;8.77;;;;;;;;;;4963778;28;20063;-72
2021/10/17 13:10:11;;;;;;;17.20;8.75;;;;;;;;;;4970034;28;20073;-72
2021/10/17 13:12:45;;;;;;;16.27;9.18;;;;;;;;;;4963398;28;20031;-72
2021/10/17 13:15:11;;;;;;;21.77;11.68;;;;;;;;;;4971473;28;20080;-70
2021/10/17 13:17:41;;;;;;;22.42;9.75;;;;;;;;;;4969360;28;20027;-71
2021/10/17 13:20:08;;;;;;;17.10;9.10;;;;;;;;;;4967782;28;20033;-72
2021/10/17 13:22:35;;;;;;;18.35;8.77;;;;;;;;;;4968413;28;20386;-70
2021/10/17 13:25:01;;;;;;;20.85;11.13;;;;;;;;;;4969327;28;20038;-71
2021/10/17 13:27:27;;;;;;;23.83;11.52;;;;;;;;;;4977674;28;20069;-71
2021/10/17 13:29:55;;;;;;;21.40;11.68;;;;;;;;;;4965724;28;20105;-71
2021/10/17 13:32:25;;;;;;;14.43;9.63;;;;;;;;;;4974608;28;20015;-71
2021/10/17 13:34:51;;;;;;;18.55;9.52;;;;;;;;;;4974744;28;20113;-70
2021/10/17 13:37:17;;;;;;;19.77;10.68;;;;;;;;;;4966988;28;20034;-70
2021/10/17 13:39:43;;;;;;;14.32;8.85;;;;;;;;;;4972237;28;20026;-70
2021/10/17 13:42:10;;;;;;;15.18;8.95;;;;;;;;;;4972721;28;20086;-72
2021/10/17 13:44:36;;;;;;;15.27;8.32;;;;;;;;;;4975398;28;20027;-72
2021/10/17 13:47:02;;;;;;;19.95;9.88;;;;;;;;;;4973076;28;20237;-71
2021/10/17 13:49:28;;;;;;;15.18;9.35;;;;;;;;;;4972894;28;20276;-71
2021/10/17 13:51:54;;;;;;;15.10;9.20;;;;;;;;;;4972183;28;20077;-71
2021/10/17 13:54:20;;;;;;;20.00;9.77;;;;;;;;;;4972896;28;20086;-71
2021/10/17 13:56:47;;;;;;;15.90;8.73;;;;;;;;;;4985044;28;20046;-72
2021/10/17 13:59:13;;;;;;;15.98;9.35;;;;;;;;;;4970684;28;20034;-71
2021/10/17 14:01:40;;;;;;;19.60;9.18;;;;;;;;;;4973333;28;20544;-72
2021/10/17 14:04:06;;;;;;;14.88;8.45;;;;;;;;;;4972795;28;20026;-72
2021/10/17 14:06:32;;;;;;;15.82;8.10;;;;;;;;;;4981538;28;20034;-72
2021/10/17 14:08:58;;;;;;;16.42;8.13;;;;;;;;;;4970500;28;20023;-72
2021/10/17 14:11:24;;;;;;;15.25;8.80;;;;;;;;;;4975672;28;20023;-71
2021/10/17 14:13:50;;;;;;;14.48;8.43;;;;;;;;;;4991013;28;20030;-71
2021/10/17 14:16:18;;;;;;;16.48;8.65;;;;;;;;;;4976075;28;20023;-72
2021/10/17 14:18:44;;;;;;;11.68;6.50;;;;;;;;;;4963374;28;20055;-72
2021/10/17 14:21:10;;;;;;;14.63;7.80;;;;;;;;;;4974095;28;20118;-72
2021/10/17 14:23:36;;;;;;;23.10;8.15;;;;;;;;;;4973841;28;20022;-71
2021/10/17 14:26:02;;;;;;;16.55;6.55;;;;;;;;;;4982054;28;20054;-72
2021/10/17 14:28:28;;;;;;;15.80;6.95;;;;;;;;;;4971021;28;20031;-71
2021/10/17 14:30:54;;;;;;;14.55;7.00;;;;;;;;;;4972907;28;20034;-71
2021/10/17 14:33:21;;;;;;;14.10;6.70;;;;;;;;;;4987493;28;20030;-72